Weather observations for the past three days for
Newburgh / Stewart
Metric (Imperial)
Date Time (edt) Wind (kph) Vis. (km) Weather Sky Cond. Temperature (ºC) Relative Humidity Wind Chill (°C) Heat Index (°C) Pressure Precipitation (cm)
Air Dwpt 6 hour altimeter (cm) sea level (mb) 1 hr 3 hr 6 hr
Max. Min.
08 07:45 W 15 16.09 NULL NULL 8 6 87% 6 75.92 0.0
08 06:45 W 15 16.09 NULL NULL 6 5 93% 3 75.87 0.0
08 05:45 W 19 16.09 Partly Cloudy SCT080 6 5 93% 3 75.84 0.0
08 04:45 W 15 16.09 Mostly Cloudy BKN080 5 5 100% 2 75.82 0.0
08 03:45 W 11 16.09 Mostly Cloudy BKN080 5 5 100% 3 75.79 0.0
08 02:45 SW 19 8.05 Light Rain Fog/Mist OVC030 7 5 87% 4 75.82 0.0
08 01:45 W 19 8.05 Light Rain Fog/Mist OVC030 8 5 82% 5 75.87 0.0
08 00:45 Vrbl 7 16.09 Overcast OVC060 10 0 50% 9 75.72 0.0
07 23:45 Vrbl 9 16.09 Overcast OVC060 10 0 50% 9 75.72 0.0
07 22:45 Vrbl 9 16.09 A Few Clouds FEW075 10 1 54% 9 75.72 0.0
07 21:45 N 11 16.09 Clear SKC 10 1 54% 9 75.69 0.0
07 20:45 NW 7 16.09 Clear SKC 11 1 50% 75.67 0.0
07 20:34 Vrbl 9 16.09 A Few Clouds FEW075 10 0 50% 9 75.72 0.0
07 19:45 N 9 16.09 A Few Clouds FEW075 13 -1 38% 75.62 0.0
07 18:45 NW 15 16.09 A Few Clouds FEW075 15 -2 31% 75.59 0.0
07 17:45 NW 15 G 26 16.09 Partly Cloudy SCT075 15 -1 34% 75.59 0.0
07 16:45 NW 15 G 26 16.09 Partly Cloudy SCT075 16 0 34% 75.57 0.0
07 15:45 NW 6 G 37 16.09 A Few Clouds FEW050 16 1 36% 75.59 0.0
07 14:45 NW 24 G 37 16.09 A Few Clouds FEW050 16 1 36% 75.64 0.0
07 12:45 N 13 G 22 16.09 A Few Clouds FEW050 15 1 39% 75.72 0.0
07 11:45 Vrbl 9 16.09 A Few Clouds FEW050 14 0 39% 75.77 0.0
07 10:45 Vrbl 6 16.09 A Few Clouds FEW050 12 0 44% 75.82 0.0
07 09:45 N 15 16.09 A Few Clouds FEW050 12 0 44% 75.84 0.0
07 08:45 N 15 16.09 A Few Clouds FEW050 11 4 62% 75.82 0.0
07 07:45 N 15 16.09 Partly Cloudy SCT060 10 6 76% 8 75.79 0.0
07 06:45 NW 11 16.09 Partly Cloudy SCT080 9 7 87% 8 75.77 0.0
07 05:45 Calm 16.09 Mostly Cloudy BKN090 9 8 94% 75.69 0.0
07 04:45 Calm 16.09 Mostly Cloudy BKN090 10 9 94% 75.69 0.0
07 03:45 W 11 16.09 Mostly Cloudy BKN060 9 9 100% 8 75.72 0.0
07 02:45 W 11 16.09 Overcast OVC060 10 9 94% 9 75.69 0.0
07 01:45 NW 9 16.09 Overcast OVC040 11 9 88% 75.67 0.0
07 00:45 W 13 16.09 Overcast OVC060 11 9 88% 75.67 0.0
06 23:45 NW 6 16.09 Mostly Cloudy SCT020 BKN045 12 9 82% 75.67 0.0
06 22:45 W 19 9.66 Fog/Mist OVC040 12 9 82% 75.69 0.0
06 21:45 W 20 G 35 8.05 Fog/Mist OVC035 13 10 82% 75.67 0.0
06 20:45 W 17 8.05 Fog/Mist SCT020 OVC030 15 14 94% 75.57 0.0
06 19:45 SW 11 G 24 8.05 Fog/Mist SCT013 OVC020 17 16 94% 75.46 0.0
06 18:45 SW 11 G 24 9.66 Fog/Mist SCT013 OVC020 17 16 94% 75.44 0.0
06 17:45 SW 11 G 24 9.66 Fog/Mist SCT013 OVC020 17 16 94% 75.41 0.0
06 16:45 SW 11 9.66 Overcast SCT013 OVC020 17 16 94% 75.41 0.0
06 15:45 Vrbl 11 9.66 Drizzle Fog/Mist SCT013 OVC020 17 17 100% 75.44 0.0
06 14:45 SW 19 G 28 8.05 Drizzle Fog/Mist SCT030 OVC020 16 16 100% 75.49 0.0
06 13:45 SW 19 G 28 8.05 Drizzle Fog/Mist SCT019 OVC020 17 15 88% 75.54 0.0
06 12:45 Vrbl 11 12.87 Drizzle FEW050 OVC070 17 16 94% 75.51 0.0
06 11:45 SW 11 G 24 9.66 Drizzle Fog/Mist BKN045 OVC085 18 15 83% 75.59 0.0
06 10:45 SW 22 G 37 16.09 Mostly Cloudy FEW050 BKN110 19 12 64% 75.64 0.0
06 09:45 SW 19 G 33 16.09 Mostly Cloudy FEW050 BKN100 19 13 68% 75.62 0.0
06 08:45 SW 17 G 24 16.09 Mostly Cloudy FEW050 BKN110 19 13 68% 75.59 0.0
06 07:45 SW 19 G 26 16.09 Mostly Cloudy BKN110 18 14 78% 75.62 0.0
06 06:45 SW 13 G 33 16.09 Mostly Cloudy BKN120 18 14 78% 75.62 0.0
06 05:45 SW 22 G 33 11.27 Mostly Cloudy BKN070 19 12 64% 75.59 0.0
06 04:45 SW 22 11.27 Mostly Cloudy BKN070 19 12 64% 75.59 0.0
06 03:45 SW 19 11.27 Mostly Cloudy BKN070 20 11 56% 75.62 0.0
06 02:45 SW 19 11.27 Mostly Cloudy BKN070 21 9 46% 75.64 0.0
05 23:45 SW 19 G 33 11.27 Mostly Cloudy BKN070 21 9 46% 75.64 0.0
05 22:45 SW 28 G 37 16.09 Mostly Cloudy SCT070 BKN110 23 9 41% 75.64 0.0
05 21:45 SW 19 G 28 16.09 Partly Cloudy SCT070 24 7 34% 25 75.62 0.0
05 20:45 SW 19 G 28 16.09 Partly Cloudy SCT070 25 6 30% 25 75.59 0.0
05 19:45 SW 19 G 28 16.09 Partly Cloudy SCT070 25 6 30% 25 75.54 0.0
05 18:45 SW 19 G 28 16.09 Partly Cloudy SCT070 26 7 30% 26 75.49 0.0
05 17:45 SW 28 G 46 16.09 Partly Cloudy SCT070 27 7 28% 26 75.44 0.0
05 16:45 SW 28 G 46 16.09 Partly Cloudy SCT065 28 7 26% 27 75.41 0.0
05 15:45 SW 28 G 46 16.09 Partly Cloudy SCT065 28 7 26% 27 75.49 0.0
05 14:45 SW 19 G 44 16.09 Partly Cloudy SCT060 27 9 32% 27 75.51 0.0
05 13:45 W 41 G 65 16.09 A Few Clouds and Breezy FEW060 27 9 32% 27 75.57 0.0
05 12:45 SW 22 G 37 16.09 A Few Clouds FEW060 26 10 37% 26 75.62 0.0
05 11:45 SW 26 G 35 16.09 A Few Clouds FEW060 24 10 41% 25 75.69 0.0
05 10:45 SW 15 G 35 16.09 A Few Clouds FEW060 24 11 44% 25 75.69 0.0
05 09:45 W 19 G 31 16.09 Clear SKC 22 12 53% 75.72 0.0
05 08:45 Calm 16.09 Clear SKC 18 11 64% 75.69 0.0
Date Time (edt) Wind (kph) Vis. (km) Weather Sky Cond. Air Dwpt Max. Min. Relative Humidity Wind Chill (°C) Heat Index (°C) altimeter (cm) sea level (mb) 1 hr 3 hr 6 hr
6 hour
Temperature (ºC) Pressure Precipitation (cm)